sensor_id;sensor_type;location;lat;lon;timestamp;temperature;humidity
16402;DHT22;8310;44.626;11.176;2023-02-28T00:01:45;5.80;68.40
16402;DHT22;8310;44.626;11.176;2023-02-28T00:04:15;5.70;69.90
16402;DHT22;8310;44.626;11.176;2023-02-28T00:06:42;5.70;71.20
16402;DHT22;8310;44.626;11.176;2023-02-28T00:09:10;5.60;72.80
16402;DHT22;8310;44.626;11.176;2023-02-28T00:11:38;5.60;73.00
16402;DHT22;8310;44.626;11.176;2023-02-28T00:14:05;5.60;72.90
16402;DHT22;8310;44.626;11.176;2023-02-28T00:16:34;5.60;71.70
16402;DHT22;8310;44.626;11.176;2023-02-28T00:19:02;5.50;72.60
16402;DHT22;8310;44.626;11.176;2023-02-28T00:21:33;5.50;71.50
16402;DHT22;8310;44.626;11.176;2023-02-28T00:24:01;5.50;71.90
16402;DHT22;8310;44.626;11.176;2023-02-28T00:26:29;5.60;72.40
16402;DHT22;8310;44.626;11.176;2023-02-28T00:28:58;5.60;71.00
16402;DHT22;8310;44.626;11.176;2023-02-28T00:31:26;5.60;70.60
16402;DHT22;8310;44.626;11.176;2023-02-28T00:33:54;5.60;69.30
16402;DHT22;8310;44.626;11.176;2023-02-28T00:36:22;5.60;68.80
16402;DHT22;8310;44.626;11.176;2023-02-28T00:38:54;5.70;68.70
16402;DHT22;8310;44.626;11.176;2023-02-28T00:41:22;5.70;68.40
16402;DHT22;8310;44.626;11.176;2023-02-28T00:43:50;5.80;68.30
16402;DHT22;8310;44.626;11.176;2023-02-28T00:46:18;5.80;68.20
16402;DHT22;8310;44.626;11.176;2023-02-28T00:48:46;5.80;68.10
16402;DHT22;8310;44.626;11.176;2023-02-28T00:51:15;5.90;68.20
16402;DHT22;8310;44.626;11.176;2023-02-28T00:53:43;5.90;68.80
16402;DHT22;8310;44.626;11.176;2023-02-28T00:56:13;5.90;69.20
16402;DHT22;8310;44.626;11.176;2023-02-28T00:58:41;5.90;69.30
16402;DHT22;8310;44.626;11.176;2023-02-28T01:01:10;5.90;69.90
16402;DHT22;8310;44.626;11.176;2023-02-28T01:03:38;5.90;69.60
16402;DHT22;8310;44.626;11.176;2023-02-28T01:06:05;5.90;69.40
16402;DHT22;8310;44.626;11.176;2023-02-28T01:08:33;5.90;69.40
16402;DHT22;8310;44.626;11.176;2023-02-28T01:11:08;6.00;69.10
16402;DHT22;8310;44.626;11.176;2023-02-28T01:13:37;6.00;68.60
16402;DHT22;8310;44.626;11.176;2023-02-28T01:16:06;6.00;68.40
16402;DHT22;8310;44.626;11.176;2023-02-28T01:18:35;6.00;68.30
16402;DHT22;8310;44.626;11.176;2023-02-28T01:21:05;6.10;68.20
16402;DHT22;8310;44.626;11.176;2023-02-28T01:23:33;6.10;68.20
16402;DHT22;8310;44.626;11.176;2023-02-28T01:26:04;6.10;68.10
16402;DHT22;8310;44.626;11.176;2023-02-28T01:28:33;6.20;68.20
16402;DHT22;8310;44.626;11.176;2023-02-28T01:31:05;6.20;68.10
16402;DHT22;8310;44.626;11.176;2023-02-28T01:33:32;6.20;68.00
16402;DHT22;8310;44.626;11.176;2023-02-28T01:36:02;6.20;67.80
16402;DHT22;8310;44.626;11.176;2023-02-28T01:38:31;6.20;67.80
16402;DHT22;8310;44.626;11.176;2023-02-28T01:40:59;6.30;67.90
16402;DHT22;8310;44.626;11.176;2023-02-28T01:43:28;6.30;67.90
16402;DHT22;8310;44.626;11.176;2023-02-28T01:45:57;6.30;67.80
16402;DHT22;8310;44.626;11.176;2023-02-28T01:48:32;6.30;67.80
16402;DHT22;8310;44.626;11.176;2023-02-28T01:51:05;6.30;67.80
16402;DHT22;8310;44.626;11.176;2023-02-28T01:53:38;6.40;68.60
16402;DHT22;8310;44.626;11.176;2023-02-28T01:56:07;6.40;67.90
16402;DHT22;8310;44.626;11.176;2023-02-28T01:58:36;6.40;67.90
16402;DHT22;8310;44.626;11.176;2023-02-28T02:01:05;6.40;67.90
16402;DHT22;8310;44.626;11.176;2023-02-28T02:03:35;6.50;67.90
16402;DHT22;8310;44.626;11.176;2023-02-28T02:06:03;6.50;68.00
16402;DHT22;8310;44.626;11.176;2023-02-28T02:08:31;6.50;67.90
16402;DHT22;8310;44.626;11.176;2023-02-28T02:11:01;6.50;67.80
16402;DHT22;8310;44.626;11.176;2023-02-28T02:13:54;6.50;67.80
16402;DHT22;8310;44.626;11.176;2023-02-28T02:16:37;6.50;67.70
16402;DHT22;8310;44.626;11.176;2023-02-28T02:19:22;6.50;67.70
16402;DHT22;8310;44.626;11.176;2023-02-28T02:22:18;6.50;67.70
16402;DHT22;8310;44.626;11.176;2023-02-28T02:25:04;6.50;67.70
16402;DHT22;8310;44.626;11.176;2023-02-28T02:27:47;6.50;67.70
16402;DHT22;8310;44.626;11.176;2023-02-28T02:30:35;6.50;67.70
16402;DHT22;8310;44.626;11.176;2023-02-28T02:33:40;6.50;67.70
16402;DHT22;8310;44.626;11.176;2023-02-28T02:36:12;6.50;67.60
16402;DHT22;8310;44.626;11.176;2023-02-28T02:38:47;6.50;67.60
16402;DHT22;8310;44.626;11.176;2023-02-28T02:41:19;6.50;67.60
16402;DHT22;8310;44.626;11.176;2023-02-28T02:43:54;6.50;67.60
16402;DHT22;8310;44.626;11.176;2023-02-28T02:46:28;6.50;67.60
16402;DHT22;8310;44.626;11.176;2023-02-28T02:48:58;6.50;67.60
16402;DHT22;8310;44.626;11.176;2023-02-28T02:51:31;6.50;67.60
16402;DHT22;8310;44.626;11.176;2023-02-28T02:54:03;6.50;67.60
16402;DHT22;8310;44.626;11.176;2023-02-28T02:56:33;6.50;67.60
16402;DHT22;8310;44.626;11.176;2023-02-28T02:59:06;6.50;67.50
16402;DHT22;8310;44.626;11.176;2023-02-28T03:01:37;6.50;67.50
16402;DHT22;8310;44.626;11.176;2023-02-28T03:04:11;6.50;67.70
16402;DHT22;8310;44.626;11.176;2023-02-28T03:06:42;6.50;67.60
16402;DHT22;8310;44.626;11.176;2023-02-28T03:09:10;6.40;67.70
16402;DHT22;8310;44.626;11.176;2023-02-28T03:11:39;6.40;69.20
16402;DHT22;8310;44.626;11.176;2023-02-28T03:14:16;6.30;68.40
16402;DHT22;8310;44.626;11.176;2023-02-28T03:19:56;6.30;67.80
16402;DHT22;8310;44.626;11.176;2023-02-28T03:22:46;6.30;67.80
16402;DHT22;8310;44.626;11.176;2023-02-28T03:25:23;6.30;67.80
16402;DHT22;8310;44.626;11.176;2023-02-28T03:28:00;6.40;67.90
16402;DHT22;8310;44.626;11.176;2023-02-28T03:30:36;6.40;68.00
16402;DHT22;8310;44.626;11.176;2023-02-28T03:33:09;6.40;68.00
16402;DHT22;8310;44.626;11.176;2023-02-28T03:35:40;6.50;67.90
16402;DHT22;8310;44.626;11.176;2023-02-28T03:38:15;6.50;67.90
16402;DHT22;8310;44.626;11.176;2023-02-28T03:40:48;6.50;67.80
16402;DHT22;8310;44.626;11.176;2023-02-28T03:43:22;6.50;67.80
16402;DHT22;8310;44.626;11.176;2023-02-28T03:45:52;6.50;67.70
16402;DHT22;8310;44.626;11.176;2023-02-28T03:48:24;6.50;67.70
16402;DHT22;8310;44.626;11.176;2023-02-28T03:50:55;6.50;67.70
16402;DHT22;8310;44.626;11.176;2023-02-28T03:53:29;6.50;67.70
16402;DHT22;8310;44.626;11.176;2023-02-28T03:56:01;6.50;67.70
16402;DHT22;8310;44.626;11.176;2023-02-28T03:58:37;6.50;67.70
16402;DHT22;8310;44.626;11.176;2023-02-28T04:01:07;6.50;67.70
16402;DHT22;8310;44.626;11.176;2023-02-28T04:03:36;6.60;67.80
16402;DHT22;8310;44.626;11.176;2023-02-28T04:06:06;6.50;67.70
16402;DHT22;8310;44.626;11.176;2023-02-28T04:08:36;6.60;67.70
16402;DHT22;8310;44.626;11.176;2023-02-28T04:11:06;6.60;67.70
16402;DHT22;8310;44.626;11.176;2023-02-28T04:13:36;6.60;67.70
16402;DHT22;8310;44.626;11.176;2023-02-28T04:16:06;6.60;67.70
16402;DHT22;8310;44.626;11.176;2023-02-28T04:18:37;6.60;67.80
16402;DHT22;8310;44.626;11.176;2023-02-28T04:21:05;6.60;67.70
16402;DHT22;8310;44.626;11.176;2023-02-28T04:23:33;6.70;67.80
16402;DHT22;8310;44.626;11.176;2023-02-28T04:26:02;6.60;67.60
16402;DHT22;8310;44.626;11.176;2023-02-28T04:28:30;6.60;68.40
16402;DHT22;8310;44.626;11.176;2023-02-28T04:30:58;6.60;67.60
16402;DHT22;8310;44.626;11.176;2023-02-28T04:33:27;6.60;67.60
16402;DHT22;8310;44.626;11.176;2023-02-28T04:35:58;6.60;67.60
16402;DHT22;8310;44.626;11.176;2023-02-28T04:38:27;6.60;67.60
16402;DHT22;8310;44.626;11.176;2023-02-28T04:40:57;6.60;67.60
16402;DHT22;8310;44.626;11.176;2023-02-28T04:43:27;6.60;67.70
16402;DHT22;8310;44.626;11.176;2023-02-28T04:45:56;6.70;67.70
16402;DHT22;8310;44.626;11.176;2023-02-28T04:48:24;6.60;67.60
16402;DHT22;8310;44.626;11.176;2023-02-28T04:50:52;6.60;67.60
16402;DHT22;8310;44.626;11.176;2023-02-28T04:53:19;6.60;67.60
16402;DHT22;8310;44.626;11.176;2023-02-28T04:55:47;6.50;67.50
16402;DHT22;8310;44.626;11.176;2023-02-28T04:58:15;6.60;67.60
16402;DHT22;8310;44.626;11.176;2023-02-28T05:00:44;6.50;67.50
16402;DHT22;8310;44.626;11.176;2023-02-28T05:03:14;6.50;67.50
16402;DHT22;8310;44.626;11.176;2023-02-28T05:05:42;6.50;67.50
16402;DHT22;8310;44.626;11.176;2023-02-28T05:08:09;6.50;67.50
16402;DHT22;8310;44.626;11.176;2023-02-28T05:10:38;6.50;67.50
16402;DHT22;8310;44.626;11.176;2023-02-28T05:13:06;6.50;67.50
16402;DHT22;8310;44.626;11.176;2023-02-28T05:15:38;6.50;67.60
16402;DHT22;8310;44.626;11.176;2023-02-28T05:18:08;6.50;67.60
16402;DHT22;8310;44.626;11.176;2023-02-28T05:20:36;6.50;67.60
16402;DHT22;8310;44.626;11.176;2023-02-28T05:23:03;6.40;67.60
16402;DHT22;8310;44.626;11.176;2023-02-28T05:25:31;6.50;68.40
16402;DHT22;8310;44.626;11.176;2023-02-28T05:27:59;6.50;67.60
16402;DHT22;8310;44.626;11.176;2023-02-28T05:30:26;6.50;67.60
16402;DHT22;8310;44.626;11.176;2023-02-28T05:32:54;6.50;67.70
16402;DHT22;8310;44.626;11.176;2023-02-28T05:35:24;6.50;67.70
16402;DHT22;8310;44.626;11.176;2023-02-28T05:37:51;6.40;67.80
16402;DHT22;8310;44.626;11.176;2023-02-28T05:40:19;6.40;67.70
16402;DHT22;8310;44.626;11.176;2023-02-28T05:42:47;6.40;67.70
16402;DHT22;8310;44.626;11.176;2023-02-28T05:45:14;6.40;68.40
16402;DHT22;8310;44.626;11.176;2023-02-28T05:47:42;6.50;67.80
16402;DHT22;8310;44.626;11.176;2023-02-28T05:50:10;6.50;67.80
16402;DHT22;8310;44.626;11.176;2023-02-28T05:52:41;6.50;67.90
16402;DHT22;8310;44.626;11.176;2023-02-28T05:55:09;6.50;67.80
16402;DHT22;8310;44.626;11.176;2023-02-28T05:57:36;6.50;67.90
16402;DHT22;8310;44.626;11.176;2023-02-28T06:00:05;6.50;67.80
16402;DHT22;8310;44.626;11.176;2023-02-28T06:02:33;6.50;67.80
16402;DHT22;8310;44.626;11.176;2023-02-28T06:05:01;6.60;67.80
16402;DHT22;8310;44.626;11.176;2023-02-28T06:07:32;6.60;67.90
16402;DHT22;8310;44.626;11.176;2023-02-28T06:10:02;6.60;67.80
16402;DHT22;8310;44.626;11.176;2023-02-28T06:12:30;6.60;67.80
16402;DHT22;8310;44.626;11.176;2023-02-28T06:14:59;6.60;67.80
16402;DHT22;8310;44.626;11.176;2023-02-28T06:17:26;6.60;67.80
16402;DHT22;8310;44.626;11.176;2023-02-28T06:19:54;6.60;67.80
16402;DHT22;8310;44.626;11.176;2023-02-28T06:22:23;6.60;67.80
16402;DHT22;8310;44.626;11.176;2023-02-28T06:24:51;6.60;67.80
16402;DHT22;8310;44.626;11.176;2023-02-28T06:27:21;6.60;67.80
16402;DHT22;8310;44.626;11.176;2023-02-28T06:29:53;6.60;67.80
16402;DHT22;8310;44.626;11.176;2023-02-28T06:32:20;6.70;67.90
16402;DHT22;8310;44.626;11.176;2023-02-28T06:34:48;6.60;68.60
16402;DHT22;8310;44.626;11.176;2023-02-28T06:37:16;6.60;67.90
16402;DHT22;8310;44.626;11.176;2023-02-28T06:39:44;6.60;67.80
16402;DHT22;8310;44.626;11.176;2023-02-28T06:42:23;6.70;67.90
16402;DHT22;8310;44.626;11.176;2023-02-28T06:44:54;6.70;68.00
16402;DHT22;8310;44.626;11.176;2023-02-28T06:47:22;6.70;68.70
16402;DHT22;8310;44.626;11.176;2023-02-28T06:49:50;6.70;68.00
16402;DHT22;8310;44.626;11.176;2023-02-28T06:52:18;6.70;68.00
16402;DHT22;8310;44.626;11.176;2023-02-28T06:54:46;6.70;68.00
16402;DHT22;8310;44.626;11.176;2023-02-28T06:57:27;6.70;68.00
16402;DHT22;8310;44.626;11.176;2023-02-28T06:59:57;6.70;68.00
16402;DHT22;8310;44.626;11.176;2023-02-28T07:02:25;6.80;68.00
16402;DHT22;8310;44.626;11.176;2023-02-28T07:04:52;6.80;68.00
16402;DHT22;8310;44.626;11.176;2023-02-28T07:07:20;6.80;67.90
16402;DHT22;8310;44.626;11.176;2023-02-28T07:09:48;6.80;67.90
16402;DHT22;8310;44.626;11.176;2023-02-28T07:12:16;6.80;67.90
16402;DHT22;8310;44.626;11.176;2023-02-28T07:14:45;6.80;67.90
16402;DHT22;8310;44.626;11.176;2023-02-28T07:17:14;6.80;68.00
16402;DHT22;8310;44.626;11.176;2023-02-28T07:19:42;6.80;68.10
16402;DHT22;8310;44.626;11.176;2023-02-28T07:22:09;6.90;68.20
16402;DHT22;8310;44.626;11.176;2023-02-28T07:24:38;6.90;68.30
16402;DHT22;8310;44.626;11.176;2023-02-28T07:27:07;6.90;68.20
16402;DHT22;8310;44.626;11.176;2023-02-28T07:29:35;7.00;68.30
16402;DHT22;8310;44.626;11.176;2023-02-28T07:32:04;7.00;68.40
16402;DHT22;8310;44.626;11.176;2023-02-28T07:34:32;7.00;68.40
16402;DHT22;8310;44.626;11.176;2023-02-28T07:37:00;7.10;68.40
16402;DHT22;8310;44.626;11.176;2023-02-28T07:39:29;7.10;68.40
16402;DHT22;8310;44.626;11.176;2023-02-28T07:41:57;7.10;68.30
16402;DHT22;8310;44.626;11.176;2023-02-28T07:44:25;7.20;69.20
16402;DHT22;8310;44.626;11.176;2023-02-28T07:46:53;7.20;68.80
16402;DHT22;8310;44.626;11.176;2023-02-28T07:49:35;7.20;68.40
16402;DHT22;8310;44.626;11.176;2023-02-28T07:52:03;7.20;68.40
16402;DHT22;8310;44.626;11.176;2023-02-28T07:54:32;7.30;68.60
16402;DHT22;8310;44.626;11.176;2023-02-28T07:57:00;7.30;68.50
16402;DHT22;8310;44.626;11.176;2023-02-28T07:59:42;7.30;68.40
16402;DHT22;8310;44.626;11.176;2023-02-28T08:02:12;7.40;68.50
16402;DHT22;8310;44.626;11.176;2023-02-28T08:04:42;7.40;68.50
16402;DHT22;8310;44.626;11.176;2023-02-28T08:07:12;7.40;68.40
16402;DHT22;8310;44.626;11.176;2023-02-28T08:09:40;7.40;68.40
16402;DHT22;8310;44.626;11.176;2023-02-28T08:12:09;7.40;68.40
16402;DHT22;8310;44.626;11.176;2023-02-28T08:14:38;7.40;68.40
16402;DHT22;8310;44.626;11.176;2023-02-28T08:17:06;7.40;68.40
16402;DHT22;8310;44.626;11.176;2023-02-28T08:19:35;7.40;68.40
16402;DHT22;8310;44.626;11.176;2023-02-28T08:22:04;7.40;68.40
16402;DHT22;8310;44.626;11.176;2023-02-28T08:24:31;7.50;68.60
16402;DHT22;8310;44.626;11.176;2023-02-28T08:27:00;7.50;68.70
16402;DHT22;8310;44.626;11.176;2023-02-28T08:29:28;7.50;68.60
16402;DHT22;8310;44.626;11.176;2023-02-28T08:31:56;7.50;68.50
16402;DHT22;8310;44.626;11.176;2023-02-28T08:34:24;7.50;68.50
16402;DHT22;8310;44.626;11.176;2023-02-28T08:36:52;7.60;68.60
16402;DHT22;8310;44.626;11.176;2023-02-28T08:39:21;7.60;68.70
16402;DHT22;8310;44.626;11.176;2023-02-28T08:41:49;7.60;68.80
16402;DHT22;8310;44.626;11.176;2023-02-28T08:44:17;7.70;68.90
16402;DHT22;8310;44.626;11.176;2023-02-28T08:46:45;7.70;68.90
16402;DHT22;8310;44.626;11.176;2023-02-28T08:49:12;7.80;69.00
16402;DHT22;8310;44.626;11.176;2023-02-28T08:51:40;7.80;69.00
16402;DHT22;8310;44.626;11.176;2023-02-28T08:54:08;7.90;69.10
16402;DHT22;8310;44.626;11.176;2023-02-28T08:56:39;7.90;69.00
16402;DHT22;8310;44.626;11.176;2023-02-28T08:59:08;8.00;69.00
16402;DHT22;8310;44.626;11.176;2023-02-28T09:01:36;8.00;69.00
16402;DHT22;8310;44.626;11.176;2023-02-28T09:04:04;8.00;69.00
16402;DHT22;8310;44.626;11.176;2023-02-28T09:06:34;8.10;69.10
16402;DHT22;8310;44.626;11.176;2023-02-28T09:09:02;8.10;69.20
16402;DHT22;8310;44.626;11.176;2023-02-28T09:11:32;8.10;69.20
16402;DHT22;8310;44.626;11.176;2023-02-28T09:14:02;8.20;69.20
16402;DHT22;8310;44.626;11.176;2023-02-28T09:16:32;8.20;69.20
16402;DHT22;8310;44.626;11.176;2023-02-28T09:18:59;8.30;69.20
16402;DHT22;8310;44.626;11.176;2023-02-28T09:21:27;8.30;69.30
16402;DHT22;8310;44.626;11.176;2023-02-28T09:23:55;8.30;69.30
16402;DHT22;8310;44.626;11.176;2023-02-28T09:26:24;8.40;69.40
16402;DHT22;8310;44.626;11.176;2023-02-28T09:28:53;8.40;69.50
16402;DHT22;8310;44.626;11.176;2023-02-28T09:31:24;8.50;69.50
16402;DHT22;8310;44.626;11.176;2023-02-28T09:33:53;8.60;69.60
16402;DHT22;8310;44.626;11.176;2023-02-28T09:36:22;8.60;69.60
16402;DHT22;8310;44.626;11.176;2023-02-28T09:38:50;8.70;69.70
16402;DHT22;8310;44.626;11.176;2023-02-28T09:41:20;8.80;69.70
16402;DHT22;8310;44.626;11.176;2023-02-28T09:43:50;8.80;69.70
16402;DHT22;8310;44.626;11.176;2023-02-28T09:46:30;8.90;69.80
16402;DHT22;8310;44.626;11.176;2023-02-28T09:49:01;8.90;69.70
16402;DHT22;8310;44.626;11.176;2023-02-28T09:51:43;8.90;69.70
16402;DHT22;8310;44.626;11.176;2023-02-28T09:54:14;9.00;69.80
16402;DHT22;8310;44.626;11.176;2023-02-28T09:56:45;9.00;69.80
16402;DHT22;8310;44.626;11.176;2023-02-28T09:59:25;9.10;69.70
16402;DHT22;8310;44.626;11.176;2023-02-28T10:02:04;9.10;69.70
16402;DHT22;8310;44.626;11.176;2023-02-28T10:04:42;9.10;69.90
16402;DHT22;8310;44.626;11.176;2023-02-28T10:07:19;9.20;70.00
16402;DHT22;8310;44.626;11.176;2023-02-28T10:09:53;9.20;70.00
16402;DHT22;8310;44.626;11.176;2023-02-28T10:12:22;9.30;70.00
16402;DHT22;8310;44.626;11.176;2023-02-28T10:14:53;9.40;70.10
16402;DHT22;8310;44.626;11.176;2023-02-28T10:17:25;9.40;70.00
16402;DHT22;8310;44.626;11.176;2023-02-28T10:20:00;9.40;70.00
16402;DHT22;8310;44.626;11.176;2023-02-28T10:22:37;9.50;69.60
16402;DHT22;8310;44.626;11.176;2023-02-28T10:25:17;9.50;68.00
16402;DHT22;8310;44.626;11.176;2023-02-28T10:27:44;9.50;69.30
16402;DHT22;8310;44.626;11.176;2023-02-28T10:30:13;9.40;69.30
16402;DHT22;8310;44.626;11.176;2023-02-28T10:32:47;9.50;69.30
16402;DHT22;8310;44.626;11.176;2023-02-28T10:35:17;9.40;69.40
16402;DHT22;8310;44.626;11.176;2023-02-28T10:37:46;9.50;69.60
16402;DHT22;8310;44.626;11.176;2023-02-28T10:40:28;9.50;69.70
16402;DHT22;8310;44.626;11.176;2023-02-28T10:42:57;9.50;69.70
16402;DHT22;8310;44.626;11.176;2023-02-28T10:45:25;9.50;69.60
16402;DHT22;8310;44.626;11.176;2023-02-28T10:47:56;9.50;68.10
16402;DHT22;8310;44.626;11.176;2023-02-28T10:50:30;9.50;68.70
16402;DHT22;8310;44.626;11.176;2023-02-28T10:53:13;9.50;69.40
16402;DHT22;8310;44.626;11.176;2023-02-28T10:55:42;9.50;69.80
16402;DHT22;8310;44.626;11.176;2023-02-28T10:58:21;9.60;70.10
16402;DHT22;8310;44.626;11.176;2023-02-28T11:00:50;9.80;70.40
16402;DHT22;8310;44.626;11.176;2023-02-28T11:03:41;9.90;70.50
16402;DHT22;8310;44.626;11.176;2023-02-28T11:06:19;10.00;70.60
16402;DHT22;8310;44.626;11.176;2023-02-28T11:08:49;10.10;70.50
16402;DHT22;8310;44.626;11.176;2023-02-28T11:11:19;10.20;70.40
16402;DHT22;8310;44.626;11.176;2023-02-28T11:13:48;10.30;70.40
16402;DHT22;8310;44.626;11.176;2023-02-28T11:16:17;10.30;70.20
16402;DHT22;8310;44.626;11.176;2023-02-28T11:18:50;10.30;70.00
16402;DHT22;8310;44.626;11.176;2023-02-28T11:21:21;10.30;70.00
16402;DHT22;8310;44.626;11.176;2023-02-28T11:23:52;10.40;70.10
16402;DHT22;8310;44.626;11.176;2023-02-28T11:26:36;10.40;70.10
16402;DHT22;8310;44.626;11.176;2023-02-28T11:29:11;10.40;70.20
16402;DHT22;8310;44.626;11.176;2023-02-28T11:31:39;10.40;70.10
16402;DHT22;8310;44.626;11.176;2023-02-28T11:34:26;10.50;70.10
16402;DHT22;8310;44.626;11.176;2023-02-28T11:36:56;10.50;70.10
16402;DHT22;8310;44.626;11.176;2023-02-28T11:39:24;10.50;69.80
16402;DHT22;8310;44.626;11.176;2023-02-28T11:42:02;10.50;69.80
16402;DHT22;8310;44.626;11.176;2023-02-28T11:44:50;10.50;69.90
16402;DHT22;8310;44.626;11.176;2023-02-28T11:47:29;10.50;70.10
16402;DHT22;8310;44.626;11.176;2023-02-28T11:50:15;10.60;70.40
16402;DHT22;8310;44.626;11.176;2023-02-28T11:52:49;10.60;70.10
16402;DHT22;8310;44.626;11.176;2023-02-28T11:55:20;10.70;69.70
16402;DHT22;8310;44.626;11.176;2023-02-28T11:58:13;10.60;69.80
16402;DHT22;8310;44.626;11.176;2023-02-28T12:01:01;10.60;70.10
16402;DHT22;8310;44.626;11.176;2023-02-28T12:03:39;10.70;70.20
16402;DHT22;8310;44.626;11.176;2023-02-28T12:06:19;10.80;70.30
16402;DHT22;8310;44.626;11.176;2023-02-28T12:11:48;10.90;70.20
16402;DHT22;8310;44.626;11.176;2023-02-28T12:17:30;11.00;70.40
16402;DHT22;8310;44.626;11.176;2023-02-28T12:20:08;11.10;70.30
16402;DHT22;8310;44.626;11.176;2023-02-28T12:22:48;11.10;70.20
16402;DHT22;8310;44.626;11.176;2023-02-28T12:25:45;11.10;70.10
16402;DHT22;8310;44.626;11.176;2023-02-28T12:28:16;11.10;70.00
16402;DHT22;8310;44.626;11.176;2023-02-28T12:30:51;11.20;69.70
16402;DHT22;8310;44.626;11.176;2023-02-28T12:33:23;11.10;69.00
16402;DHT22;8310;44.626;11.176;2023-02-28T12:35:55;11.10;69.30
16402;DHT22;8310;44.626;11.176;2023-02-28T12:38:27;11.10;69.60
16402;DHT22;8310;44.626;11.176;2023-02-28T12:40:59;11.10;69.90
16402;DHT22;8310;44.626;11.176;2023-02-28T12:43:34;11.10;70.00
16402;DHT22;8310;44.626;11.176;2023-02-28T12:46:07;11.20;70.30
16402;DHT22;8310;44.626;11.176;2023-02-28T12:48:40;11.30;70.50
16402;DHT22;8310;44.626;11.176;2023-02-28T12:51:09;11.40;70.30
16402;DHT22;8310;44.626;11.176;2023-02-28T12:53:57;11.40;70.30
16402;DHT22;8310;44.626;11.176;2023-02-28T12:56:35;11.50;70.50
16402;DHT22;8310;44.626;11.176;2023-02-28T12:59:13;11.60;70.70
16402;DHT22;8310;44.626;11.176;2023-02-28T13:02:00;11.70;70.70
16402;DHT22;8310;44.626;11.176;2023-02-28T13:04:46;11.80;70.60
16402;DHT22;8310;44.626;11.176;2023-02-28T13:07:32;11.90;70.60
16402;DHT22;8310;44.626;11.176;2023-02-28T13:10:07;11.90;70.60
16402;DHT22;8310;44.626;11.176;2023-02-28T13:12:34;12.00;70.60
16402;DHT22;8310;44.626;11.176;2023-02-28T13:15:13;12.10;70.50
16402;DHT22;8310;44.626;11.176;2023-02-28T13:17:48;12.10;70.40
16402;DHT22;8310;44.626;11.176;2023-02-28T13:20:18;12.10;70.20
16402;DHT22;8310;44.626;11.176;2023-02-28T13:22:48;12.10;70.10
16402;DHT22;8310;44.626;11.176;2023-02-28T13:31:29;12.10;70.10
16402;DHT22;8310;44.626;11.176;2023-02-28T13:34:11;12.10;70.10
16402;DHT22;8310;44.626;11.176;2023-02-28T13:36:40;12.10;70.00
16402;DHT22;8310;44.626;11.176;2023-02-28T13:41:53;12.10;69.90
16402;DHT22;8310;44.626;11.176;2023-02-28T13:44:21;12.10;69.80
16402;DHT22;8310;44.626;11.176;2023-02-28T13:49:53;12.00;69.60
16402;DHT22;8310;44.626;11.176;2023-02-28T13:52:22;12.00;69.60
16402;DHT22;8310;44.626;11.176;2023-02-28T13:54:58;11.90;69.50
16402;DHT22;8310;44.626;11.176;2023-02-28T13:57:29;11.90;69.50
16402;DHT22;8310;44.626;11.176;2023-02-28T14:00:02;11.90;69.50
16402;DHT22;8310;44.626;11.176;2023-02-28T14:02:45;11.90;69.40
16402;DHT22;8310;44.626;11.176;2023-02-28T14:05:16;11.80;69.30
16402;DHT22;8310;44.626;11.176;2023-02-28T14:07:45;11.80;69.30
16402;DHT22;8310;44.626;11.176;2023-02-28T14:10:23;11.80;69.20
16402;DHT22;8310;44.626;11.176;2023-02-28T14:12:54;11.70;65.90
16402;DHT22;8310;44.626;11.176;2023-02-28T14:15:30;11.50;67.50
16402;DHT22;8310;44.626;11.176;2023-02-28T14:18:03;11.40;67.60
16402;DHT22;8310;44.626;11.176;2023-02-28T14:20:32;11.30;67.20
16402;DHT22;8310;44.626;11.176;2023-02-28T14:23:02;11.20;65.30
16402;DHT22;8310;44.626;11.176;2023-02-28T14:25:32;11.10;66.50
16402;DHT22;8310;44.626;11.176;2023-02-28T14:28:04;10.90;66.00
16402;DHT22;8310;44.626;11.176;2023-02-28T14:30:40;10.80;66.80
16402;DHT22;8310;44.626;11.176;2023-02-28T14:33:16;10.60;67.50
16402;DHT22;8310;44.626;11.176;2023-02-28T14:35:56;10.40;68.40
16402;DHT22;8310;44.626;11.176;2023-02-28T14:38:28;10.30;68.10
16402;DHT22;8310;44.626;11.176;2023-02-28T14:40:58;10.10;68.20
16402;DHT22;8310;44.626;11.176;2023-02-28T14:43:27;10.00;67.40
16402;DHT22;8310;44.626;11.176;2023-02-28T14:45:55;10.00;68.30
16402;DHT22;8310;44.626;11.176;2023-02-28T14:48:24;9.90;68.50
16402;DHT22;8310;44.626;11.176;2023-02-28T14:50:55;9.80;67.10
16402;DHT22;8310;44.626;11.176;2023-02-28T14:53:26;9.70;67.40
16402;DHT22;8310;44.626;11.176;2023-02-28T14:55:53;9.70;68.10
16402;DHT22;8310;44.626;11.176;2023-02-28T14:58:22;9.60;68.40
16402;DHT22;8310;44.626;11.176;2023-02-28T15:00:50;9.60;68.90
16402;DHT22;8310;44.626;11.176;2023-02-28T15:03:18;9.60;68.90
16402;DHT22;8310;44.626;11.176;2023-02-28T15:08:23;9.50;69.10
16402;DHT22;8310;44.626;11.176;2023-02-28T15:10:51;9.50;69.50
16402;DHT22;8310;44.626;11.176;2023-02-28T15:13:19;9.60;69.60
16402;DHT22;8310;44.626;11.176;2023-02-28T15:15:47;9.60;69.10
16402;DHT22;8310;44.626;11.176;2023-02-28T15:18:21;9.50;69.00
16402;DHT22;8310;44.626;11.176;2023-02-28T15:20:50;9.50;68.40
16402;DHT22;8310;44.626;11.176;2023-02-28T15:23:18;9.40;68.90
16402;DHT22;8310;44.626;11.176;2023-02-28T15:25:48;9.40;68.80
16402;DHT22;8310;44.626;11.176;2023-02-28T15:28:17;9.40;69.00
16402;DHT22;8310;44.626;11.176;2023-02-28T15:30:53;9.40;69.20
16402;DHT22;8310;44.626;11.176;2023-02-28T15:33:23;9.30;69.70
16402;DHT22;8310;44.626;11.176;2023-02-28T15:35:50;9.30;69.60
16402;DHT22;8310;44.626;11.176;2023-02-28T15:38:21;9.30;69.50
16402;DHT22;8310;44.626;11.176;2023-02-28T15:40:51;9.30;69.70
16402;DHT22;8310;44.626;11.176;2023-02-28T15:43:24;9.40;69.50
16402;DHT22;8310;44.626;11.176;2023-02-28T15:45:51;9.40;69.50
16402;DHT22;8310;44.626;11.176;2023-02-28T15:48:20;9.40;69.00
16402;DHT22;8310;44.626;11.176;2023-02-28T15:50:53;9.40;69.20
16402;DHT22;8310;44.626;11.176;2023-02-28T15:53:22;9.40;69.30
16402;DHT22;8310;44.626;11.176;2023-02-28T15:56:16;9.40;69.00
16402;DHT22;8310;44.626;11.176;2023-02-28T15:58:44;9.40;68.90
16402;DHT22;8310;44.626;11.176;2023-02-28T16:01:19;9.40;69.80
16402;DHT22;8310;44.626;11.176;2023-02-28T16:03:48;9.40;68.90
16402;DHT22;8310;44.626;11.176;2023-02-28T16:09:02;9.40;68.50
16402;DHT22;8310;44.626;11.176;2023-02-28T16:11:32;9.40;68.60
16402;DHT22;8310;44.626;11.176;2023-02-28T16:14:00;9.40;68.50
16402;DHT22;8310;44.626;11.176;2023-02-28T16:16:28;9.40;68.60
16402;DHT22;8310;44.626;11.176;2023-02-28T16:18:55;9.40;68.50
16402;DHT22;8310;44.626;11.176;2023-02-28T16:21:23;9.40;68.70
16402;DHT22;8310;44.626;11.176;2023-02-28T16:23:51;9.40;68.70
16402;DHT22;8310;44.626;11.176;2023-02-28T16:26:20;9.40;68.70
16402;DHT22;8310;44.626;11.176;2023-02-28T16:28:49;9.40;68.70
16402;DHT22;8310;44.626;11.176;2023-02-28T16:31:18;9.40;68.80
16402;DHT22;8310;44.626;11.176;2023-02-28T16:33:46;9.40;68.90
16402;DHT22;8310;44.626;11.176;2023-02-28T16:36:15;9.30;69.20